Share

Alberta, MN

1:44 PM CDT on April 24, 2014 (GMT -0500)
Morris Municipal (KMOX) Elev 1129 ft | 45.57 °N, 95.97 °W | Change Station
Active Advisory: TEST Tornado Watch

Current weather conditions updated 33 minutes ago

Scattered Clouds
Scattered Clouds
43 °F
Feels Like 38 °F
N
8
Wind Variable Wind from East
Sunrise 6:23 AM
Sunset 8:22 PM
Moon Waning Crescent

Today is forecast to be Much Warmer than yesterday.

Pressure 29.68 in
Visibility 10.0 miles
Clouds Scattered Clouds 10000 ft
Windchill 38 °F
Dew Point 39 °F
Humidity 87%
Rainfall 1.03 in
Snow Depth Not available.
UV 7 out of 16
Pollen 1.90 out of 12
Air Quality Not available.
Flu Activity Sporadic
METAR KMOX 241811Z AUTO 10007KT 10SM SCT100 06/04 A2968 RMK AO2

More Conditions Fewer Conditions

Pressure 29.68 in
Visibility 10.0 miles
Clouds Scattered Clouds 10000 ft
Windchill 38 °F
Dew Point 39 °F
Humidity 87%
Rainfall 1.03 in
Snow Depth Not available.
UV 7 out of 16
Pollen 1.90 out of 12
Air Quality Not available.
Flu Activity Sporadic
METAR KMOX 241811Z AUTO 10007KT 10SM SCT100 06/04 A2968 RMK AO2

More Conditions Fewer Conditions

10-Day Weather Forecast

Almanac

Astronomy

Apr. 24, 2014 Rise Set
Actual Time 6:23 AM CDT 8:22 PM CDT
Civil Twilight 5:51 AM CDT 8:54 PM CDT
Nautical Twilight 5:12 AM CDT 9:33 PM CDT
Astronomical Twilight 4:29 AM CDT 10:17 PM CDT
Moon 3:50 AM CDT 3:25 PM CDT
Length of Visible Light 15h 02m
Length of Day
13h 58m
Tomorrow will be 2m 55s longer.
Waning Crescent, 23% of the Moon is Illuminated
Today
Waning Crescent
Apr 29
New
May 6
First Quarter
May 14
Full
May 21
Last Quarter

Today's Extremes

State Highs State Lows

Community

  • Sunset at Apalachicola Bay, Florida
    Sunset at Apalachicola Bay, Florida
  • Clouds mov'n in
    Clouds mov'n in
  • Stacked
    Stacked
  • clouds approaching Red Sox Nation
    clouds approaching Red Sox Nation
  • Balance
    Balance

WunderPhotos

Upload Photos

1,704,688 photos uploaded!

Nearby

Snow Depth

Station Depth Elevation
No new snow has been reported.

Coastal Water Temperatures

Place Temperature
No Stations Reporting

Earthquake Activity

City Distance Mag. Time & Date
No recent earthquake activity has been reported nearby.
Minimum magnitude displayed is 2.5.

Nearby Weather Stations

Station Location Temp. Windchill Dew Point Humidity Wind Precip. Elev Updated Type
stevens twsp, Chokio, MN 44.5 °F 44 °F 44 °F 97% SE  at  1.0 mph 0.00 in / hr 1131 ft 1:39 PM CDT Normal
RAWS BIG STONE NWR MN, Odessa, MN 45 °F 43 °F 43 °F 91% East  at  4 mph 0.00 in / hr 877 ft 12:51 PM CDT MADIS
Hoffman MN, Hoffman, MN 41.2 °F 37 °F 41 °F 99% East  at  6.0 mph 0.02 in / hr 1240 ft 1:43 PM CDT Normal

Show More Stations Show Fewer Stations

What do you think?

We're not finished. Please let us know what you like, what you don't like, and what you are still missing.